Alderson, OK (74522)

05:59 AM CDT on Oktober 23, 2014 (GMT -0500)
Kinkead Hills | Change Station
CLOSE
Current Station
Personligvejrstation
Location: McAlester, OK
Højde: 808 ft
Vejrstationer i nærheden

Elev 808 ft 34.90 °N, 95.73 °W | Updated 14 minutes ago

Overskyet
Overskyet
58.9 ° F
Føles som 58.9 ° F
N
0.0
Vind Skiftende Vind SSØ

I dag
Høj -- | Lav -- ° F
--% Risiko for nedbør
I går
Høj -- | Lav -- ° F
Precip. -- tommer
7:35 AM 6:38 PM
Aftagende halvmåne, 0% visible
Tryk 30.14 tommer
Sigtbarhed 10.0 mil
Skyer Overskyet 7500 ft
Dugpunkt 55 ° F
Luftfugtighed 86%
Regnmængde 0.00 tommer
Snedybde Ikke tilgængelig.
UV 0 fra 12
Pollen 3.80 fra 12
Luftkvalitet Ikke tilgængelig.
Flu Activity No Activity
METAR KMLC 231053Z AUTO 00000KT 10SM OVC075 16/13 A3015 RMK AO2 SLP204 T01560128

More Conditions Fewer Conditions

Tryk 30.14 tommer
Sigtbarhed 10.0 mil
Skyer Overskyet 7500 ft
Dugpunkt 55 ° F
Luftfugtighed 86%
Regnmængde 0.00 tommer
Snedybde Ikke tilgængelig.
UV 0 fra 12
Pollen 3.80 fra 12
Luftkvalitet Ikke tilgængelig.
Flu Activity No Activity
METAR KMLC 231053Z AUTO 00000KT 10SM OVC075 16/13 A3015 RMK AO2 SLP204 T01560128

More Conditions Fewer Conditions

Nowcast | as of 5:10 am CDT on October 23, 2014

At 5:10 am...National Weather Service Doppler radar indicated scattered areas of light rain across parts of eastern Oklahoma. The rain was moving east at 25 miles an hour. Through 7 am...scattered areas of light rain will continue to move across parts of eastern Oklahoma and may begin to affect far western Arkansas as well. Rainfall amounts will generally be less than a tenth of an inch.

×

10-Day Weather Forecast

Almanac

Astronomi

Oct. 23, 2014 Opgang Nedgang
Faktisktidspunkt 7:35 AM CDT 6:38 PM CDT
Civilttusmørke 7:09 AM CDT 7:03 PM CDT
Nautisktusmørke 6:40 AM CDT 7:33 PM CDT
Astronomisktusmørke 6:10 AM CDT 8:02 PM CDT
Måne 7:16 AM CDT 6:40 PM CDT
Synligtlys’ længde 11h 54m
Dagens længde
11h 02m
Tomorrow will be 2m 2s shorter.
Aftagende halvmåne, 0% of the Moon is Illuminated
I dag
Aftagende halvmåne
Okt. 23
Ny
Okt. 30
Første kvartal
Nov. 6
Fuldmåne
Nov. 14
Sidste kvartal

Ekstremer i dag

State Highs State Lows

Community

WunderPhotos

Upload Photos

1,764,203 Billeder uploaded!

Nearby

Snedybde

Station Depth Højde
Der er ikke rapporteret nogen ny sne.

Jordskælvsaktivitet

By Distance Mag. Time & Date
Pawnee, Oklahoma 129 mil 2.7 1:06 AM CDT
2014-10-23
Luther, Oklahoma 98 mil 2.5 10:36 PM CDT
2014-10-22
Crescent, Oklahoma 138 mil 2.7 9:58 PM CDT
2014-10-22
Langston, Oklahoma 119 mil 2.9 10:03 AM CDT
2014-10-22
Minimum magnitude displayed is 2.5.

Kystnære vandtemperaturer

Sted Temperatur
Ingen stationer rapporterer

Vejrstationer i nærheden